Time;durP1;ratioP1;P1;durP2;ratioP2;P2;SDS_P1;SDS_P2;PMS_P1;PMS_P2;Temp;Humidity;BMP_temperature;BMP_pressure;BME280_temperature;BME280_humidity;BME280_pressure;Samples;Min_cycle;Max_cycle;Signal;HPM_P1;HPM_P2
2021/01/29 00:01:28;;;;;;;1.00;0.80;;;;;;;11.36;68.87;95510.13;5093258;28;20523;-67
2021/01/29 00:03:54;;;;;;;1.73;1.10;;;;;;;10.97;70.20;95514.22;5092673;28;20186;-66
2021/01/29 00:06:20;;;;;;;1.20;0.90;;;;;;;11.04;70.65;95502.78;5092911;28;20524;-67
2021/01/29 00:08:45;;;;;;;1.33;0.87;;;;;;;10.88;71.91;95503.94;5093006;28;20236;-67
2021/01/29 00:11:11;;;;;;;2.70;1.03;;;;;;;10.57;73.02;95507.84;5093021;28;20209;-65
2021/01/29 00:13:37;;;;;;;1.20;0.70;;;;;;;10.72;73.41;95499.00;5054446;28;20650;-68
2021/01/29 00:16:03;;;;;;;1.30;0.70;;;;;;;10.83;73.41;95484.56;5092093;28;20888;-65
2021/01/29 00:18:29;;;;;;;0.97;0.87;;;;;;;11.02;73.13;95477.75;5091113;28;20201;-68
2021/01/29 00:20:55;;;;;;;2.03;0.93;;;;;;;10.68;74.61;95476.84;5074737;28;20438;-67
2021/01/29 00:23:21;;;;;;;0.90;0.80;;;;;;;10.84;74.19;95471.25;5090944;28;20192;-66
2021/01/29 00:25:50;;;;;;;1.47;0.80;;;;;;;10.93;73.79;95468.47;5092489;28;20200;-67
2021/01/29 00:28:17;;;;;;;0.90;0.70;;;;;;;10.91;73.77;95472.09;5092225;28;20778;-66
2021/01/29 00:30:43;;;;;;;2.20;0.80;;;;;;;10.96;73.51;95452.38;5092359;28;20460;-67
2021/01/29 00:33:11;;;;;;;0.90;0.63;;;;;;;10.89;73.82;95447.91;5085549;28;20734;-68
2021/01/29 00:35:38;;;;;;;0.90;0.80;;;;;;;10.97;73.53;95446.91;5091599;28;20424;-65
2021/01/29 00:38:06;;;;;;;1.47;1.00;;;;;;;11.06;73.01;95450.16;5087644;28;20460;-69
2021/01/29 00:40:33;;;;;;;2.63;1.00;;;;;;;10.89;73.16;95453.13;5091808;28;20424;-66
2021/01/29 00:42:59;;;;;;;2.80;1.00;;;;;;;10.89;73.63;95457.59;5090815;28;20442;-66
2021/01/29 00:45:29;;;;;;;3.13;0.90;;;;;;;10.93;73.49;95463.22;5092034;28;20412;-66
2021/01/29 00:47:57;;;;;;;0.90;0.70;;;;;;;10.78;74.46;95463.38;5090527;28;20475;-68
2021/01/29 00:50:23;;;;;;;1.83;1.00;;;;;;;11.02;73.21;95455.00;5092614;28;20914;-67
2021/01/29 00:52:49;;;;;;;1.53;0.90;;;;;;;11.08;73.02;95456.03;5092573;28;20477;-66
2021/01/29 00:55:17;;;;;;;1.93;1.20;;;;;;;11.09;72.85;95441.88;5093183;28;20894;-66
2021/01/29 00:57:42;;;;;;;1.33;1.17;;;;;;;11.03;73.33;95426.97;5092231;28;20200;-67
2021/01/29 01:00:10;;;;;;;1.43;1.20;;;;;;;11.15;72.92;95432.44;5091989;28;20926;-66
2021/01/29 01:02:36;;;;;;;1.67;1.30;;;;;;;10.84;73.72;95418.84;5084611;28;20233;-67
2021/01/29 01:05:04;;;;;;;1.20;1.00;;;;;;;10.82;74.52;95410.41;5090800;28;20470;-64
2021/01/29 01:07:29;;;;;;;1.20;1.10;;;;;;;10.90;73.95;95412.81;5091816;28;20550;-67
2021/01/29 01:09:56;;;;;;;1.93;1.33;;;;;;;10.81;74.35;95408.78;5091819;28;20432;-66
2021/01/29 01:12:22;;;;;;;1.40;1.30;;;;;;;10.95;73.56;95395.72;5091454;28;20169;-65
2021/01/29 01:14:47;;;;;;;1.57;1.30;;;;;;;11.05;73.23;95399.53;5091183;28;20473;-67
2021/01/29 01:17:13;;;;;;;2.20;1.17;;;;;;;11.14;72.85;95402.00;5091484;28;20530;-68
2021/01/29 01:19:39;;;;;;;4.70;1.10;;;;;;;11.04;73.26;95384.81;5086277;28;20288;-67
2021/01/29 01:22:05;;;;;;;1.30;1.20;;;;;;;11.26;72.28;95383.81;5091130;28;20653;-68
2021/01/29 01:24:39;;;;;;;1.63;1.20;;;;;;;11.23;72.35;95366.69;5091314;28;20211;-67
2021/01/29 01:27:10;;;;;;;2.10;1.27;;;;;;;11.07;72.98;95373.13;5091166;28;20817;-68
2021/01/29 01:29:36;;;;;;;1.97;1.13;;;;;;;11.06;73.02;95364.44;5091030;28;20436;-66
2021/01/29 01:32:03;;;;;;;1.93;1.23;;;;;;;11.19;72.60;95362.84;5088459;28;20525;-66
2021/01/29 01:34:28;;;;;;;1.30;1.10;;;;;;;11.11;72.71;95350.75;5091215;28;20428;-66
2021/01/29 01:36:54;;;;;;;1.30;0.97;;;;;;;11.13;72.61;95342.69;5091388;28;20408;-66
2021/01/29 01:39:20;;;;;;;1.00;0.90;;;;;;;11.21;72.31;95348.53;5086090;28;20201;-66
2021/01/29 01:41:46;;;;;;;1.77;0.90;;;;;;;11.22;72.21;95338.84;5091061;28;20648;-67
2021/01/29 01:44:42;;;;;;;1.00;0.90;;;;;;;11.14;72.59;95326.75;5091073;28;20656;-65
2021/01/29 01:47:36;;;;;;;2.17;0.87;;;;;;;11.26;72.53;95323.53;5092171;28;20209;-67
2021/01/29 01:50:12;;;;;;;0.93;0.83;;;;;;;11.20;72.21;95318.09;5093886;28;20466;-66
2021/01/29 01:52:40;;;;;;;1.43;0.97;;;;;;;11.24;72.29;95315.03;5095266;28;20506;-67
2021/01/29 01:55:12;;;;;;;1.00;0.90;;;;;;;11.16;72.70;95306.38;5094113;28;20426;-66
2021/01/29 01:57:38;;;;;;;2.73;1.17;;;;;;;10.98;73.47;95308.78;5093741;28;20426;-66
2021/01/29 02:00:16;;;;;;;1.87;1.10;;;;;;;10.99;73.32;95302.53;5095219;28;20419;-66
2021/01/29 02:02:45;;;;;;;6.43;0.93;;;;;;;11.06;73.16;95301.53;5094939;28;20404;-67
2021/01/29 02:05:17;;;;;;;1.10;1.00;;;;;;;10.98;73.25;95298.31;5085895;28;20768;-67
2021/01/29 02:07:46;;;;;;;1.30;1.20;;;;;;;10.93;73.54;95290.25;5094071;28;21042;-67
2021/01/29 02:10:12;;;;;;;1.47;1.30;;;;;;;10.90;73.98;95280.97;5086635;28;20776;-67
2021/01/29 02:12:38;;;;;;;2.03;1.10;;;;;;;10.72;74.78;95265.84;5094393;28;20462;-67
2021/01/29 02:15:24;;;;;;;2.70;1.00;;;;;;;10.74;75.00;95266.47;5094053;28;20473;-66
2021/01/29 02:18:02;;;;;;;2.30;1.00;;;;;;;10.74;74.66;95263.84;5094584;28;20194;-66
2021/01/29 02:21:22;;;;;;;1.73;0.80;;;;;;;10.73;75.12;95259.59;5094887;28;20422;-67
2021/01/29 02:24:09;;;;;;;1.03;0.83;;;;;;;10.62;75.38;95258.41;5088355;28;20574;-65
2021/01/29 02:26:55;;;;;;;2.57;0.90;;;;;;;10.77;74.91;95260.03;5092415;28;20482;-66
2021/01/29 02:29:47;;;;;;;1.23;0.97;;;;;;;10.68;75.20;95256.78;5103551;28;20431;-66
2021/01/29 02:32:37;;;;;;;1.20;1.10;;;;;;;10.77;74.42;95245.09;5099762;28;20802;-67
2021/01/29 02:35:07;;;;;;;1.77;0.80;;;;;;;10.59;75.38;95243.06;5088852;28;20424;-65
2021/01/29 02:38:01;;;;;;;1.67;0.73;;;;;;;10.55;75.33;95234.81;5094925;28;21163;-66
2021/01/29 02:40:56;;;;;;;1.73;0.80;;;;;;;10.60;74.84;95229.78;5094143;28;20420;-66
2021/01/29 02:43:25;;;;;;;0.90;0.80;;;;;;;10.50;75.50;95228.56;5092630;28;20440;-66
2021/01/29 02:46:02;;;;;;;0.87;0.80;;;;;;;10.47;75.47;95221.91;5094089;28;20776;-66
2021/01/29 02:48:34;;;;;;;1.00;0.80;;;;;;;10.58;75.21;95210.03;5092254;28;20431;-67
2021/01/29 02:51:11;;;;;;;1.63;0.90;;;;;;;10.54;74.99;95193.09;5095171;28;20424;-66
2021/01/29 02:54:08;;;;;;;1.03;0.93;;;;;;;10.54;75.21;95188.69;5094794;28;20420;-66
2021/01/29 02:56:43;;;;;;;1.00;0.80;;;;;;;10.47;75.92;95187.06;5093377;28;20416;-66
2021/01/29 02:59:19;;;;;;;1.00;0.70;;;;;;;10.42;75.60;95193.69;5064818;28;20442;-65
2021/01/29 03:01:55;;;;;;;0.80;0.70;;;;;;;10.20;76.60;95179.97;5094721;28;20451;-67
2021/01/29 03:04:22;;;;;;;1.30;0.80;;;;;;;10.32;76.13;95190.63;5056338;28;20444;-66
2021/01/29 03:06:53;;;;;;;0.90;0.80;;;;;;;9.97;77.57;95188.97;5074473;28;20465;-65
2021/01/29 03:09:40;;;;;;;0.93;0.80;;;;;;;10.26;76.36;95176.53;5093729;28;20443;-67
2021/01/29 03:12:13;;;;;;;1.20;1.00;;;;;;;10.65;74.85;95174.16;5101695;28;20420;-66
2021/01/29 03:14:45;;;;;;;1.40;1.03;;;;;;;10.45;75.81;95168.94;5091990;28;20577;-66
2021/01/29 03:17:37;;;;;;;1.10;0.90;;;;;;;10.38;75.42;95179.41;5046333;28;20409;-68
2021/01/29 03:20:21;;;;;;;1.00;0.70;;;;;;;10.48;75.49;95167.72;5079221;28;20423;-67
2021/01/29 03:23:10;;;;;;;1.40;0.83;;;;;;;10.62;74.80;95163.28;5070679;28;20432;-66
2021/01/29 03:25:42;;;;;;;0.93;0.70;;;;;;;10.67;74.58;95160.88;5070775;28;21182;-66
2021/01/29 03:28:21;;;;;;;1.00;0.80;;;;;;;10.45;74.92;95148.00;5086527;28;20473;-66
2021/01/29 03:30:49;;;;;;;5.13;1.10;;;;;;;10.29;76.41;95159.63;5069448;28;20434;-66
2021/01/29 03:33:16;;;;;;;1.00;0.80;;;;;;;10.48;75.53;95146.78;5074962;28;20431;-66
2021/01/29 03:36:01;;;;;;;1.20;0.80;;;;;;;10.69;74.41;95143.94;5087663;28;20439;-68
2021/01/29 03:38:41;;;;;;;0.90;0.80;;;;;;;10.30;75.76;95133.25;5085586;28;20527;-67
2021/01/29 03:41:25;;;;;;;1.87;0.83;;;;;;;10.16;76.28;95131.63;5091772;28;20423;-66
2021/01/29 03:43:54;;;;;;;4.40;0.97;;;;;;;9.92;76.97;95128.59;5091112;28;20428;-66
2021/01/29 03:46:27;;;;;;;1.00;0.80;;;;;;;10.60;74.41;95135.47;5092975;28;20427;-66
2021/01/29 03:49:30;;;;;;;2.43;1.00;;;;;;;10.22;76.28;95116.94;5092471;28;20435;-65
2021/01/29 03:52:16;;;;;;;0.80;0.60;;;;;;;10.27;75.94;95110.09;5090897;28;20415;-66
2021/01/29 03:54:48;;;;;;;1.70;1.07;;;;;;;10.57;74.73;95114.13;5091400;28;20427;-66
2021/01/29 03:57:34;;;;;;;0.93;0.63;;;;;;;10.46;74.95;95115.53;5092550;28;20446;-66
2021/01/29 04:00:06;;;;;;;2.07;0.70;;;;;;;10.47;74.99;95103.28;5090895;28;20426;-66
2021/01/29 04:02:50;;;;;;;1.37;0.70;;;;;;;10.24;74.98;95094.78;5092358;28;20419;-66
2021/01/29 04:05:20;;;;;;;2.23;0.70;;;;;;;10.29;75.69;95092.38;5092151;28;20498;-67
2021/01/29 04:07:50;;;;;;;1.20;0.83;;;;;;;10.43;75.06;95092.41;5090518;28;20444;-68
2021/01/29 04:10:18;;;;;;;1.87;0.83;;;;;;;10.52;74.63;95080.69;5090755;28;20775;-67
2021/01/29 04:13:25;;;;;;;0.90;0.60;;;;;;;10.22;75.92;95077.69;5092191;28;20416;-67
2021/01/29 04:15:52;;;;;;;1.67;0.90;;;;;;;10.15;75.64;95081.09;5089253;28;20431;-66
2021/01/29 04:18:18;;;;;;;0.80;0.60;;;;;;;10.01;75.79;95065.59;5083380;28;20483;-66
2021/01/29 04:20:48;;;;;;;1.60;0.83;;;;;;;10.27;75.56;95065.59;5092354;28;20528;-69
2021/01/29 04:23:36;;;;;;;6.53;0.70;;;;;;;10.40;74.03;95056.16;5076173;28;20177;-66
2021/01/29 04:26:07;;;;;;;4.73;0.67;;;;;;;10.41;74.09;95034.19;5089540;28;20550;-66
2021/01/29 04:28:36;;;;;;;0.80;0.50;;;;;;;10.43;73.88;95026.94;5090251;28;20864;-67
2021/01/29 04:31:05;;;;;;;1.90;0.73;;;;;;;10.51;73.54;95021.47;5087515;28;20448;-66
2021/01/29 04:33:39;;;;;;;0.90;0.70;;;;;;;10.48;73.83;95006.16;5090194;28;20412;-66
2021/01/29 04:36:06;;;;;;;1.33;0.70;;;;;;;10.35;74.21;95006.16;5072725;28;20832;-67
2021/01/29 04:38:34;;;;;;;1.63;0.70;;;;;;;10.46;74.05;94997.69;5090460;28;20527;-67
2021/01/29 04:41:12;;;;;;;3.13;0.60;;;;;;;10.47;73.99;94993.28;5091709;28;20780;-66
2021/01/29 04:43:59;;;;;;;0.80;0.60;;;;;;;10.38;74.44;94990.09;5090538;28;20431;-68
2021/01/29 04:46:53;;;;;;;0.90;0.70;;;;;;;10.39;74.32;94984.66;5092020;28;20412;-66
2021/01/29 04:49:55;;;;;;;2.10;1.63;;;;;;;10.19;75.73;94966.34;5074722;28;20550;-65
2021/01/29 04:53:15;;;;;;;2.60;1.37;;;;;;;10.27;75.31;94957.47;5091647;28;20431;-67
2021/01/29 04:56:18;;;;;;;1.83;1.10;;;;;;;10.15;76.11;94949.44;5089073;28;20412;-66
2021/01/29 04:59:19;;;;;;;1.93;1.10;;;;;;;9.97;76.61;94939.59;5088502;28;20533;-68
2021/01/29 05:02:02;;;;;;;2.43;1.17;;;;;;;9.96;77.55;94932.75;4989032;28;20428;-66
2021/01/29 05:04:46;;;;;;;3.33;0.70;;;;;;;10.05;76.47;94936.75;4989020;28;20438;-66
2021/01/29 05:07:42;;;;;;;2.03;1.00;;;;;;;9.97;77.50;94922.06;4989431;28;20537;-66
2021/01/29 05:10:17;;;;;;;0.90;0.60;;;;;;;9.82;77.17;94913.66;4988875;28;20503;-65
2021/01/29 05:12:55;;;;;;;2.83;0.73;;;;;;;9.83;77.74;94912.63;4970048;28;20459;-66
2021/01/29 05:15:47;;;;;;;8.37;2.60;;;;;;;9.92;77.69;94919.28;4982483;28;20428;-66
2021/01/29 05:18:31;;;;;;;1.00;0.50;;;;;;;9.86;77.73;94925.31;4988958;28;20448;-66
2021/01/29 05:21:05;;;;;;;0.80;0.60;;;;;;;9.91;77.92;94928.13;4988496;28;20416;-66
2021/01/29 05:23:52;;;;;;;1.43;0.80;;;;;;;9.92;77.23;94934.16;4989297;28;20427;-66
2021/01/29 05:26:54;;;;;;;1.77;0.70;;;;;;;9.96;76.98;94932.75;4988736;28;20922;-67
2021/01/29 05:29:39;;;;;;;0.80;0.63;;;;;;;10.17;76.74;94921.25;4995543;28;20538;-66
2021/01/29 05:32:41;;;;;;;1.07;0.80;;;;;;;9.84;77.19;94917.69;4991739;28;20427;-66
2021/01/29 05:35:32;;;;;;;0.83;0.60;;;;;;;10.04;76.46;94901.13;5008480;28;20419;-66
2021/01/29 05:38:35;;;;;;;1.70;0.90;;;;;;;10.13;76.62;94888.63;5089399;28;20449;-65
2021/01/29 05:41:29;;;;;;;1.40;0.60;;;;;;;9.93;76.78;94886.88;5087426;28;20989;-67
2021/01/29 05:44:08;;;;;;;0.83;0.60;;;;;;;9.91;76.92;94880.22;5090291;28;20522;-66
2021/01/29 05:46:48;;;;;;;1.33;0.90;;;;;;;9.81;77.68;94873.63;5089706;28;20459;-66
2021/01/29 05:49:21;;;;;;;1.20;0.70;;;;;;;9.83;76.94;94866.38;5079394;28;20946;-67
2021/01/29 05:51:56;;;;;;;3.83;2.27;;;;;;;10.06;76.64;94861.69;5086668;28;20451;-67
2021/01/29 05:54:46;;;;;;;2.20;1.63;;;;;;;9.69;77.46;94851.72;5088952;28;20427;-66
2021/01/29 05:57:37;;;;;;;0.93;0.70;;;;;;;9.98;76.28;94839.97;5093278;28;20412;-67
2021/01/29 06:00:27;;;;;;;3.83;0.90;;;;;;;9.84;76.58;94838.38;5107287;28;20437;-65
2021/01/29 06:03:19;;;;;;;1.57;0.70;;;;;;;9.55;77.59;94850.94;5086833;28;20437;-68
2021/01/29 06:05:56;;;;;;;2.70;1.53;;;;;;;9.53;77.84;94869.41;5090288;28;20742;-66
2021/01/29 06:08:45;;;;;;;4.20;2.53;;;;;;;9.82;76.18;94867.38;5089602;28;20463;-66
2021/01/29 06:11:22;;;;;;;1.00;0.80;;;;;;;9.63;77.45;94865.63;5090914;28;20411;-67
2021/01/29 06:14:10;;;;;;;1.93;0.80;;;;;;;9.59;77.66;94878.25;5090096;28;20431;-68
2021/01/29 06:17:00;;;;;;;0.90;0.80;;;;;;;9.59;78.37;94891.34;5091076;28;20415;-66
2021/01/29 06:19:32;;;;;;;1.00;0.90;;;;;;;9.36;79.28;94902.22;5089414;28;20500;-66
2021/01/29 06:22:06;;;;;;;3.67;1.20;;;;;;;9.33;79.83;94919.09;5087205;28;20427;-66
2021/01/29 06:25:01;;;;;;;3.37;1.00;;;;;;;9.67;78.46;94930.38;5088975;28;20454;-67
2021/01/29 06:27:49;;;;;;;1.40;0.80;;;;;;;9.32;80.84;94963.75;5090412;28;21059;-68
2021/01/29 06:30:35;;;;;;;1.00;0.87;;;;;;;9.33;80.94;94945.22;5090242;28;20427;-67
2021/01/29 06:33:13;;;;;;;2.50;0.87;;;;;;;9.70;79.99;94938.84;5070722;28;20794;-68
2021/01/29 06:36:05;;;;;;;2.10;0.70;;;;;;;9.21;81.33;94933.75;5092587;28;20803;-65
2021/01/29 06:38:37;;;;;;;1.67;0.70;;;;;;;9.41;79.80;94951.28;5088408;28;20447;-65
2021/01/29 06:41:21;;;;;;;0.90;0.70;;;;;;;9.60;79.53;94941.84;5094156;28;20427;-66
2021/01/29 06:44:14;;;;;;;3.83;0.90;;;;;;;9.63;78.54;94921.31;5093675;28;20439;-67
2021/01/29 06:47:02;;;;;;;1.17;0.83;;;;;;;9.87;77.18;94932.16;5094213;28;20477;-68
2021/01/29 06:49:47;;;;;;;3.70;0.60;;;;;;;9.87;76.08;94916.47;5087880;28;20435;-66
2021/01/29 06:52:38;;;;;;;3.77;0.80;;;;;;;9.80;75.68;94926.94;5094345;28;20416;-66
2021/01/29 06:55:03;;;;;;;3.73;0.70;;;;;;;9.47;76.32;94947.84;5093840;28;21366;-67
2021/01/29 06:58:03;;;;;;;0.77;0.50;;;;;;;9.72;73.97;94927.16;5093820;28;20778;-67
2021/01/29 07:00:34;;;;;;;1.00;0.70;;;;;;;10.01;72.49;94943.44;5093788;28;20241;-66
2021/01/29 07:03:54;;;;;;;1.00;0.70;;;;;;;9.94;72.98;94943.44;5092994;28;20542;-66
2021/01/29 07:06:44;;;;;;;0.90;0.70;;;;;;;9.55;73.55;94929.38;5084436;28;20416;-68
2021/01/29 07:09:13;;;;;;;1.93;0.80;;;;;;;9.63;73.65;94947.47;5093453;28;20447;-67
2021/01/29 07:11:57;;;;;;;0.90;0.60;;;;;;;9.97;71.79;94939.59;5092908;28;20436;-66
2021/01/29 07:14:23;;;;;;;0.80;0.50;;;;;;;9.91;72.23;94933.38;5086040;28;20561;-66
2021/01/29 07:16:59;;;;;;;0.90;0.60;;;;;;;9.95;71.08;94942.44;5093421;28;20555;-66
2021/01/29 07:19:35;;;;;;;0.80;0.67;;;;;;;9.68;71.19;94960.75;5072176;28;20206;-66
2021/01/29 07:22:30;;;;;;;0.80;0.57;;;;;;;9.68;71.39;94962.56;5091354;28;20459;-66
2021/01/29 07:25:11;;;;;;;1.10;0.60;;;;;;;10.13;69.11;94977.63;5091933;28;20411;-67
2021/01/29 07:27:45;;;;;;;2.17;0.50;;;;;;;10.11;69.59;94980.44;5092551;28;20455;-67
2021/01/29 07:30:26;;;;;;;1.33;0.50;;;;;;;10.00;69.71;94983.69;5085278;28;20420;-67
2021/01/29 07:33:09;;;;;;;0.90;0.50;;;;;;;9.78;70.27;94977.84;5091754;28;20510;-67
2021/01/29 07:35:56;;;;;;;1.67;0.70;;;;;;;10.17;69.28;94993.72;5093223;28;20420;-66
2021/01/29 07:38:34;;;;;;;0.80;0.60;;;;;;;10.07;69.01;94983.69;5092198;28;20446;-66
2021/01/29 07:41:21;;;;;;;1.63;0.57;;;;;;;9.97;68.85;94984.88;5092826;28;20509;-67
2021/01/29 07:44:08;;;;;;;0.80;0.60;;;;;;;10.08;68.60;94991.31;5086951;28;20432;-69
2021/01/29 07:46:46;;;;;;;2.43;0.73;;;;;;;10.36;68.34;94992.06;5092868;28;20447;-67
2021/01/29 07:49:49;;;;;;;3.60;0.60;;;;;;;10.43;68.07;94998.13;5092950;28;20439;-66
2021/01/29 07:52:24;;;;;;;1.50;0.50;;;;;;;10.29;68.85;94989.47;5084535;28;21264;-67
2021/01/29 07:55:00;;;;;;;1.70;0.60;;;;;;;10.14;69.45;94997.53;5092606;28;20835;-68
2021/01/29 07:57:56;;;;;;;1.20;0.70;;;;;;;10.29;68.23;95003.38;5093269;28;20415;-66
2021/01/29 08:00:51;;;;;;;2.03;0.60;;;;;;;10.25;68.00;94999.53;5092948;28;20412;-67
2021/01/29 08:03:57;;;;;;;1.33;0.70;;;;;;;10.61;67.58;94989.63;5083950;28;20428;-65
2021/01/29 08:07:03;;;;;;;1.43;0.80;;;;;;;10.21;67.32;95000.16;5094240;28;20835;-66
2021/01/29 08:09:32;;;;;;;1.23;0.93;;;;;;;10.32;67.34;94998.75;5094785;28;20439;-66
2021/01/29 08:12:03;;;;;;;3.33;0.70;;;;;;;10.53;66.68;94998.50;5094385;28;20501;-65
2021/01/29 08:15:06;;;;;;;1.00;0.63;;;;;;;10.71;66.30;95004.91;5084357;28;20790;-67
2021/01/29 08:17:41;;;;;;;1.63;0.70;;;;;;;10.39;67.25;95012.63;5095177;28;20460;-66
2021/01/29 08:20:30;;;;;;;1.63;0.80;;;;;;;10.62;67.56;95006.13;5091189;28;20419;-70
2021/01/29 08:23:05;;;;;;;1.13;0.80;;;;;;;10.66;67.53;95012.56;5096933;28;20480;-66
2021/01/29 08:26:21;;;;;;;4.50;0.70;;;;;;;10.37;68.20;95001.53;5090122;28;20428;-66
2021/01/29 08:29:20;;;;;;;1.10;0.80;;;;;;;10.79;67.74;94991.56;5069575;28;20870;-65
2021/01/29 08:32:08;;;;;;;1.57;1.17;;;;;;;10.88;67.77;95000.81;5081041;28;20474;-66
2021/01/29 08:35:24;;;;;;;1.17;0.87;;;;;;;10.89;67.48;94997.16;5089159;28;20506;-67
2021/01/29 08:37:58;;;;;;;1.53;0.77;;;;;;;10.93;66.85;94991.53;5039508;28;20425;-66
2021/01/29 08:40:30;;;;;;;0.90;0.70;;;;;;;10.64;67.88;94994.47;5089847;28;20428;-68
2021/01/29 08:42:57;;;;;;;1.10;0.70;;;;;;;10.52;67.42;95009.19;5090107;28;20443;-67
2021/01/29 08:45:47;;;;;;;0.80;0.50;;;;;;;10.70;67.08;95008.53;5089431;28;20432;-66
2021/01/29 08:48:34;;;;;;;3.27;0.90;;;;;;;10.73;66.00;95003.69;5081547;28;20487;-68
2021/01/29 08:51:09;;;;;;;0.90;0.77;;;;;;;10.64;65.75;95011.97;5083331;28;20432;-66
2021/01/29 08:54:08;;;;;;;0.80;0.60;;;;;;;10.55;65.60;95038.41;5072794;28;20511;-67
2021/01/29 08:57:06;;;;;;;1.23;1.00;;;;;;;10.67;65.45;95019.41;5084749;28;20427;-66
2021/01/29 08:59:35;;;;;;;1.33;0.60;;;;;;;10.53;65.60;95022.06;5089899;28;20507;-64
2021/01/29 09:02:38;;;;;;;1.30;0.60;;;;;;;10.47;64.82;95015.03;5072664;28;20436;-67
2021/01/29 09:05:11;;;;;;;1.03;0.60;;;;;;;10.59;65.21;95029.09;5082569;28;20478;-66
2021/01/29 09:07:41;;;;;;;0.80;0.50;;;;;;;10.67;65.28;95025.44;5090399;28;20538;-65
2021/01/29 09:10:25;;;;;;;1.33;0.70;;;;;;;10.47;66.61;95056.94;5090491;28;20466;-66
2021/01/29 09:13:05;;;;;;;1.10;0.60;;;;;;;10.41;67.11;95049.91;5088140;28;20522;-66
2021/01/29 09:15:50;;;;;;;1.30;0.70;;;;;;;10.37;67.40;95064.38;5090561;28;20450;-66
2021/01/29 09:18:31;;;;;;;1.27;0.70;;;;;;;10.29;68.25;95050.50;5084544;28;20488;-66
2021/01/29 09:21:08;;;;;;;1.33;0.60;;;;;;;10.11;68.12;95058.13;5085748;28;20503;-67
2021/01/29 09:23:46;;;;;;;0.90;0.60;;;;;;;10.41;67.96;95042.84;5090346;28;20424;-66
2021/01/29 09:26:30;;;;;;;0.90;0.60;;;;;;;10.58;67.08;95043.22;5091924;28;20423;-65
2021/01/29 09:29:21;;;;;;;5.23;0.80;;;;;;;10.52;65.89;95058.97;5089886;28;20451;-67
2021/01/29 09:31:54;;;;;;;1.40;0.80;;;;;;;10.72;64.58;95053.66;5087713;28;20523;-65
2021/01/29 09:34:23;;;;;;;2.23;0.70;;;;;;;10.91;62.78;95063.28;5089871;28;20420;-66
2021/01/29 09:36:52;;;;;;;3.87;1.03;;;;;;;10.97;61.49;95066.88;5087933;28;20422;-67
2021/01/29 09:39:30;;;;;;;2.83;1.07;;;;;;;11.12;60.83;95074.50;5090576;28;20538;-65
2021/01/29 09:41:59;;;;;;;2.33;0.90;;;;;;;10.94;60.52;95087.47;5083807;28;20416;-68
2021/01/29 09:44:37;;;;;;;2.60;1.20;;;;;;;11.05;60.40;95074.50;5073176;28;20439;-66
2021/01/29 09:47:04;;;;;;;4.00;1.00;;;;;;;11.15;60.17;95068.03;5091767;28;20454;-66
2021/01/29 09:49:31;;;;;;;2.70;1.00;;;;;;;10.82;60.12;95079.44;5090049;28;20451;-65
2021/01/29 09:51:58;;;;;;;4.70;1.07;;;;;;;10.90;58.98;95097.53;5072124;28;20420;-66
2021/01/29 09:54:40;;;;;;;5.67;1.20;;;;;;;11.10;59.08;95089.63;5091590;28;20480;-66
2021/01/29 09:57:11;;;;;;;2.83;1.30;;;;;;;10.80;59.68;95126.81;5091011;28;20422;-67
2021/01/29 09:59:39;;;;;;;2.57;0.97;;;;;;;11.42;57.72;95115.94;5089245;28;20526;-67
2021/01/29 10:02:16;;;;;;;2.40;1.00;;;;;;;11.11;58.41;95106.94;5091189;28;20507;-67
2021/01/29 10:05:01;;;;;;;3.20;1.10;;;;;;;11.40;57.90;95128.44;5092869;28;20419;-67
2021/01/29 10:07:29;;;;;;;4.20;0.90;;;;;;;11.33;57.61;95131.09;5084609;28;20513;-69
2021/01/29 10:10:03;;;;;;;2.37;1.00;;;;;;;11.23;57.96;95135.97;5093799;28;20513;-66
2021/01/29 10:12:30;;;;;;;3.60;1.20;;;;;;;11.20;58.60;95133.75;5094170;28;21209;-67
2021/01/29 10:15:12;;;;;;;3.20;1.10;;;;;;;11.12;58.68;95147.88;5093615;28;20439;-65
2021/01/29 10:17:46;;;;;;;2.03;0.90;;;;;;;11.32;58.54;95147.81;5093893;28;20426;-68
2021/01/29 10:20:21;;;;;;;2.50;1.07;;;;;;;11.18;58.51;95168.06;5093449;28;20441;-67
2021/01/29 10:23:14;;;;;;;4.67;1.33;;;;;;;11.13;58.49;95159.97;5093440;28;20480;-67
2021/01/29 10:25:40;;;;;;;4.07;1.40;;;;;;;10.79;59.46;95154.00;5093674;28;20430;-66
2021/01/29 10:28:09;;;;;;;5.43;1.03;;;;;;;10.87;58.11;95142.50;5092802;28;20982;-64
2021/01/29 10:30:46;;;;;;;3.67;1.13;;;;;;;10.55;58.54;95137.91;5089780;28;20190;-65
2021/01/29 10:33:19;;;;;;;3.37;1.40;;;;;;;10.64;57.81;95161.28;5086107;28;20594;-67
2021/01/29 10:35:55;;;;;;;4.83;2.07;;;;;;;10.64;58.29;95158.66;5094568;28;20495;-66
2021/01/29 10:38:32;;;;;;;3.00;1.10;;;;;;;11.04;57.55;95171.72;5094857;28;20954;-66
2021/01/29 10:41:10;;;;;;;5.40;1.40;;;;;;;11.27;57.36;95157.31;5094412;28;20524;-65
2021/01/29 10:43:45;;;;;;;3.50;0.93;;;;;;;10.47;58.37;95145.97;5093857;28;20438;-65
2021/01/29 10:46:41;;;;;;;2.87;1.00;;;;;;;10.86;57.69;95149.56;5086765;28;20476;-67
2021/01/29 10:49:18;;;;;;;3.87;1.10;;;;;;;11.25;56.63;95160.16;5092712;28;20458;-66
2021/01/29 10:52:03;;;;;;;2.80;1.10;;;;;;;11.26;56.42;95148.66;5089238;28;20427;-69
2021/01/29 10:54:37;;;;;;;2.93;1.53;;;;;;;11.03;56.78;95141.25;5088345;28;20484;-67
2021/01/29 10:57:12;;;;;;;6.60;1.60;;;;;;;11.27;55.28;95154.69;5092601;28;20895;-66
2021/01/29 10:59:52;;;;;;;3.10;1.50;;;;;;;11.44;55.16;95149.81;5092564;28;20612;-66
2021/01/29 11:02:27;;;;;;;3.67;1.20;;;;;;;11.15;55.53;95146.69;5087324;28;20792;-66
2021/01/29 11:05:12;;;;;;;6.10;2.10;;;;;;;11.24;55.92;95152.50;5076132;28;20443;-66
2021/01/29 11:07:43;;;;;;;6.90;1.50;;;;;;;11.23;55.43;95149.06;5089978;28;20930;-66
2021/01/29 11:10:31;;;;;;;6.63;1.53;;;;;;;11.39;54.95;95160.13;5092292;28;20531;-66
2021/01/29 11:13:09;;;;;;;3.60;1.60;;;;;;;10.74;56.20;95148.56;5091198;28;20420;-67
2021/01/29 11:15:54;;;;;;;3.30;1.73;;;;;;;11.26;55.91;95161.78;5092273;28;20618;-65
2021/01/29 11:18:27;;;;;;;7.27;1.53;;;;;;;11.07;56.82;95160.81;5093973;28;20428;-65
2021/01/29 11:21:20;;;;;;;4.93;1.43;;;;;;;11.28;56.39;95164.19;5091101;28;20431;-68
2021/01/29 11:24:10;;;;;;;5.90;1.83;;;;;;;10.97;57.10;95165.66;5089117;28;20846;-68
2021/01/29 11:26:57;;;;;;;5.20;1.40;;;;;;;11.01;56.98;95177.34;5091470;28;20420;-65
2021/01/29 11:29:30;;;;;;;5.77;1.60;;;;;;;11.02;56.67;95168.47;5093165;28;20824;-68
2021/01/29 11:32:32;;;;;;;3.20;1.10;;;;;;;10.81;57.56;95178.19;5092098;28;20424;-66
2021/01/29 11:35:24;;;;;;;4.33;1.37;;;;;;;10.97;57.63;95174.34;5092274;28;20488;-67
2021/01/29 11:37:55;;;;;;;7.10;1.60;;;;;;;10.68;57.85;95173.75;5090393;28;20420;-65
2021/01/29 11:40:23;;;;;;;4.37;1.30;;;;;;;10.98;57.34;95162.84;5089015;28;20428;-67
2021/01/29 11:43:09;;;;;;;3.30;1.10;;;;;;;11.02;57.14;95168.47;5065451;28;20787;-66
2021/01/29 11:45:43;;;;;;;3.50;1.30;;;;;;;10.97;57.23;95169.09;5092899;28;20540;-66
2021/01/29 11:48:12;;;;;;;4.70;1.63;;;;;;;10.83;57.94;95142.13;5075433;28;20841;-66
2021/01/29 11:50:45;;;;;;;7.10;1.50;;;;;;;10.93;58.25;95151.38;5093318;28;20903;-67
2021/01/29 11:53:16;;;;;;;2.70;1.13;;;;;;;10.77;57.77;95150.00;5075294;28;20428;-67
2021/01/29 11:56:00;;;;;;;3.30;1.50;;;;;;;10.68;57.15;95152.00;5092880;28;20420;-67
2021/01/29 11:58:47;;;;;;;10.23;1.60;;;;;;;10.98;56.50;95159.41;5071612;28;20589;-68
2021/01/29 12:01:17;;;;;;;6.57;1.30;;;;;;;10.85;56.48;95152.38;5076150;28;20430;-66
2021/01/29 12:04:05;;;;;;;5.90;1.40;;;;;;;11.02;55.87;95123.94;5091932;28;20423;-66
2021/01/29 12:06:40;;;;;;;3.67;1.57;;;;;;;10.75;56.88;95134.47;5080231;28;20409;-67
2021/01/29 12:09:15;;;;;;;14.27;1.70;;;;;;;11.30;55.57;95138.56;5079965;28;20902;-67
2021/01/29 12:11:47;;;;;;;4.43;1.10;;;;;;;10.82;56.41;95137.88;5084674;28;20423;-67
2021/01/29 12:14:46;;;;;;;6.03;1.50;;;;;;;10.70;55.57;95132.44;5094306;28;20415;-68
2021/01/29 12:17:13;;;;;;;4.00;1.47;;;;;;;10.88;54.85;95136.28;5076222;28;20965;-68
2021/01/29 12:19:42;;;;;;;6.33;1.53;;;;;;;11.13;53.90;95122.50;5085879;28;20452;-65
2021/01/29 12:22:10;;;;;;;7.97;2.00;;;;;;;11.49;52.95;95121.94;5092943;28;20476;-65
2021/01/29 12:24:57;;;;;;;5.67;1.33;;;;;;;11.19;53.09;95122.47;5079839;28;20480;-66
2021/01/29 12:27:27;;;;;;;6.63;1.40;;;;;;;11.57;52.40;95128.75;5086319;28;20459;-67
2021/01/29 12:30:07;;;;;;;4.30;1.73;;;;;;;11.55;52.75;95132.63;5091658;28;20439;-68